Time;durP1;ratioP1;P1;durP2;ratioP2;P2;SDS_P1;SDS_P2;PMS_P1;PMS_P2;Temp;Humidity;BMP_temperature;BMP_pressure;BME280_temperature;BME280_humidity;BME280_pressure;Samples;Min_cycle;Max_cycle;Signal;HPM_P1;HPM_P2
2023/05/02 00:00:51;;;;;;;59.60;40.13;;;;;;;;;;5055102;28;20029;-80
2023/05/02 00:03:20;;;;;;;52.07;37.23;;;;;;;;;;5050588;28;20026;-80
2023/05/02 00:05:46;;;;;;;55.00;36.80;;;;;;;;;;5055553;28;20036;-80
2023/05/02 00:08:12;;;;;;;55.20;38.47;;;;;;;;;;5056195;28;20029;-80
2023/05/02 00:10:38;;;;;;;58.43;39.70;;;;;;;;;;5076248;28;20014;-80
2023/05/02 00:13:04;;;;;;;59.73;38.97;;;;;;;;;;5062845;28;20036;-81
2023/05/02 00:15:30;;;;;;;57.50;38.70;;;;;;;;;;5057855;28;20021;-81
2023/05/02 00:17:56;;;;;;;65.03;41.70;;;;;;;;;;5058805;28;20041;-80
2023/05/02 00:20:30;;;;;;;60.70;39.40;;;;;;;;;;5054673;28;20010;-80
2023/05/02 00:22:56;;;;;;;57.00;36.70;;;;;;;;;;5055129;28;20014;-81
2023/05/02 00:25:22;;;;;;;60.00;40.93;;;;;;;;;;5054102;28;20042;-81
2023/05/02 00:27:49;;;;;;;66.80;42.47;;;;;;;;;;5057990;28;20040;-81
2023/05/02 00:30:17;;;;;;;64.10;42.20;;;;;;;;;;5036474;28;20033;-81
2023/05/02 00:32:44;;;;;;;61.40;41.30;;;;;;;;;;5063631;28;20029;-81
2023/05/02 00:35:10;;;;;;;64.00;40.57;;;;;;;;;;5062260;28;20104;-81
2023/05/02 00:37:38;;;;;;;66.63;43.27;;;;;;;;;;5056693;28;20021;-81
2023/05/02 00:40:07;;;;;;;71.33;43.07;;;;;;;;;;5056690;28;20006;-80
2023/05/02 00:42:35;;;;;;;65.03;42.27;;;;;;;;;;5052148;28;20022;-81
2023/05/02 00:45:05;;;;;;;62.33;41.27;;;;;;;;;;5051599;28;20093;-80
2023/05/02 00:47:31;;;;;;;68.57;42.33;;;;;;;;;;5054915;28;20013;-80
2023/05/02 00:49:57;;;;;;;68.23;42.53;;;;;;;;;;5056904;28;20037;-80
2023/05/02 00:52:24;;;;;;;70.40;43.43;;;;;;;;;;5064093;28;20012;-80
2023/05/02 00:54:55;;;;;;;63.63;41.17;;;;;;;;;;5056529;28;20026;-80
2023/05/02 00:57:21;;;;;;;66.40;41.93;;;;;;;;;;5062738;28;20013;-80
2023/05/02 00:59:47;;;;;;;57.93;35.47;;;;;;;;;;5060763;28;20056;-81
2023/05/02 01:02:25;;;;;;;55.97;35.47;;;;;;;;;;5076395;28;20081;-82
2023/05/02 01:05:09;;;;;;;60.00;37.53;;;;;;;;;;5050404;28;20063;-80
2023/05/02 01:07:43;;;;;;;66.90;40.77;;;;;;;;;;5073933;28;20126;-80
2023/05/02 01:10:14;;;;;;;61.40;40.30;;;;;;;;;;5052587;28;20014;-81
2023/05/02 01:13:06;;;;;;;68.67;40.83;;;;;;;;;;5054393;28;20020;-81
2023/05/02 01:15:32;;;;;;;65.13;41.90;;;;;;;;;;5055966;28;20101;-80
2023/05/02 01:18:00;;;;;;;70.43;41.13;;;;;;;;;;5059046;28;20038;-81
2023/05/02 01:20:43;;;;;;;68.37;41.33;;;;;;;;;;5059722;28;20013;-81
2023/05/02 01:23:09;;;;;;;;;;;;;;;;;;5058582;28;20017;-80
2023/05/02 01:25:55;;;;;;;73.97;44.03;;;;;;;;;;5075784;28;19923;-80
2023/05/02 01:28:24;;;;;;;71.23;41.40;;;;;;;;;;5057577;28;20020;-80
2023/05/02 01:30:51;;;;;;;84.70;46.93;;;;;;;;;;5065208;28;20044;-80
2023/05/02 01:33:18;;;;;;;88.90;51.47;;;;;;;;;;5079944;28;20107;-80
2023/05/02 01:35:56;;;;;;;93.47;50.80;;;;;;;;;;5126602;22;20033;-80
2023/05/02 01:38:26;;;;;;;93.60;54.53;;;;;;;;;;5081555;28;20029;-80
2023/05/02 01:41:05;;;;;;;97.83;55.00;;;;;;;;;;5084452;28;20000;-80
2023/05/02 01:43:32;;;;;;;102.67;55.33;;;;;;;;;;5083373;28;19993;-80
2023/05/02 01:45:59;;;;;;;104.07;57.13;;;;;;;;;;5079651;28;20037;-80
2023/05/02 01:48:26;;;;;;;103.07;56.63;;;;;;;;;;5080668;28;20031;-80
2023/05/02 01:50:53;;;;;;;108.37;56.90;;;;;;;;;;5081293;28;20017;-80
2023/05/02 01:53:29;;;;;;;108.70;55.33;;;;;;;;;;5081184;28;20009;-81
2023/05/02 01:55:56;;;;;;;112.90;55.73;;;;;;;;;;5083358;28;20048;-81
2023/05/02 01:58:24;;;;;;;130.43;63.80;;;;;;;;;;5082138;28;20036;-81
2023/05/02 02:00:58;;;;;;;124.00;61.23;;;;;;;;;;5084311;28;20005;-82
2023/05/02 02:03:25;;;;;;;117.87;59.73;;;;;;;;;;5083051;28;20081;-80
2023/05/02 02:05:51;;;;;;;117.47;60.40;;;;;;;;;;5074436;28;20017;-81
2023/05/02 02:08:17;;;;;;;118.93;58.27;;;;;;;;;;5078508;28;20028;-82
2023/05/02 02:10:49;;;;;;;122.10;59.73;;;;;;;;;;5082615;28;20028;-80
2023/05/02 02:13:26;;;;;;;113.95;57.40;;;;;;;;;;5083171;28;20027;-80
2023/05/02 02:15:55;;;;;;;114.97;54.93;;;;;;;;;;5085865;28;20028;-80
2023/05/02 02:18:24;;;;;;;111.17;54.13;;;;;;;;;;5076996;28;20044;-80
2023/05/02 02:20:50;;;;;;;110.57;57.30;;;;;;;;;;5081859;28;20208;-80
2023/05/02 02:23:18;;;;;;;110.57;55.67;;;;;;;;;;5079748;28;20005;-80
2023/05/02 02:25:50;;;;;;;99.73;51.27;;;;;;;;;;5078299;28;20045;-80
2023/05/02 02:28:16;;;;;;;97.55;51.10;;;;;;;;;;5081910;28;20013;-80
2023/05/02 02:30:42;;;;;;;100.43;51.50;;;;;;;;;;5074391;28;20044;-80
2023/05/02 02:33:08;;;;;;;104.87;50.63;;;;;;;;;;5073789;28;20028;-80
2023/05/02 02:35:37;;;;;;;101.33;51.90;;;;;;;;;;5079736;28;20041;-80
2023/05/02 02:38:21;;;;;;;99.67;51.97;;;;;;;;;;5074461;28;20029;-80
2023/05/02 02:40:54;;;;;;;102.17;50.33;;;;;;;;;;5071807;28;20017;-80
2023/05/02 02:43:29;;;;;;;90.83;48.10;;;;;;;;;;5081309;28;20020;-80
2023/05/02 02:45:55;;;;;;;91.23;45.37;;;;;;;;;;5078938;28;20021;-81
2023/05/02 02:48:40;;;;;;;87.70;45.20;;;;;;;;;;5080573;28;20016;-80
2023/05/02 02:51:08;;;;;;;91.63;44.90;;;;;;;;;;5098555;28;20048;-80
2023/05/02 02:53:44;;;;;;;94.80;45.83;;;;;;;;;;5080344;28;20024;-80
2023/05/02 02:56:15;;;;;;;80.80;41.67;;;;;;;;;;5070995;28;20060;-81
2023/05/02 02:58:50;;;;;;;93.10;44.37;;;;;;;;;;5080201;28;20037;-80
2023/05/02 03:01:24;;;;;;;89.50;44.60;;;;;;;;;;5078379;28;20068;-80
2023/05/02 03:03:53;;;;;;;92.17;45.33;;;;;;;;;;5097687;28;20024;-80
2023/05/02 03:06:23;;;;;;;90.57;44.00;;;;;;;;;;5079767;28;20044;-80
2023/05/02 03:08:55;;;;;;;81.53;42.40;;;;;;;;;;5077752;28;20043;-80
2023/05/02 03:11:26;;;;;;;91.15;46.72;;;;;;;;;;5067380;28;20021;-80
2023/05/02 03:13:52;;;;;;;89.67;44.03;;;;;;;;;;5075713;28;20027;-80
2023/05/02 03:16:27;;;;;;;84.97;42.83;;;;;;;;;;5081094;28;20077;-81
2023/05/02 03:19:02;;;;;;;85.93;41.80;;;;;;;;;;5084440;28;20037;-81
2023/05/02 03:21:31;;;;;;;85.13;42.87;;;;;;;;;;5079873;28;20013;-82
2023/05/02 03:24:03;;;;;;;93.10;44.47;;;;;;;;;;5069937;28;20063;-82
2023/05/02 03:26:32;;;;;;;89.00;45.88;;;;;;;;;;5073440;28;20040;-80
2023/05/02 03:29:03;;;;;;;89.87;43.10;;;;;;;;;;5081738;28;20073;-80
2023/05/02 03:31:29;;;;;;;85.30;41.00;;;;;;;;;;5073322;28;20028;-80
2023/05/02 03:33:55;;;;;;;86.67;43.50;;;;;;;;;;5075486;28;20047;-80
2023/05/02 03:36:22;;;;;;;88.70;42.60;;;;;;;;;;5080020;28;20009;-79
2023/05/02 03:38:48;;;;;;;86.87;41.57;;;;;;;;;;5080221;28;20037;-79
2023/05/02 03:41:16;;;;;;;86.00;43.13;;;;;;;;;;5081817;28;20012;-80
2023/05/02 03:43:49;;;;;;;82.23;40.87;;;;;;;;;;5078854;28;20040;-80
2023/05/02 03:46:15;;;;;;;85.73;39.57;;;;;;;;;;5070475;28;20028;-80
2023/05/02 03:48:41;;;;;;;85.80;41.17;;;;;;;;;;5085161;28;20009;-80
2023/05/02 03:51:10;;;;;;;81.57;39.57;;;;;;;;;;5082655;28;20029;-80
2023/05/02 03:53:36;;;;;;;88.43;43.70;;;;;;;;;;5075098;28;20012;-80
2023/05/02 03:56:02;;;;;;;83.00;41.00;;;;;;;;;;5081675;28;20009;-80
2023/05/02 03:58:28;;;;;;;89.57;41.50;;;;;;;;;;5081412;28;20044;-80
2023/05/02 04:00:54;;;;;;;84.97;41.17;;;;;;;;;;5074111;28;20068;-82
2023/05/02 04:03:23;;;;;;;98.07;45.40;;;;;;;;;;5064756;28;20017;-80
2023/05/02 04:05:50;;;;;;;86.77;43.80;;;;;;;;;;5076401;28;20100;-80
2023/05/02 04:08:18;;;;;;;93.23;44.03;;;;;;;;;;5080384;28;20052;-80
2023/05/02 04:10:44;;;;;;;89.70;41.33;;;;;;;;;;5067240;28;20014;-80
2023/05/02 04:13:13;;;;;;;88.43;45.33;;;;;;;;;;5079579;28;20043;-79
2023/05/02 04:15:41;;;;;;;81.47;42.17;;;;;;;;;;5070743;28;20080;-80
2023/05/02 04:18:10;;;;;;;83.67;41.57;;;;;;;;;;5075260;28;20047;-80
2023/05/02 04:20:36;;;;;;;74.60;38.70;;;;;;;;;;5069679;28;20023;-80
2023/05/02 04:23:04;;;;;;;84.07;41.47;;;;;;;;;;5084699;28;20017;-80
2023/05/02 04:25:33;;;;;;;89.63;41.70;;;;;;;;;;5095730;28;20033;-80
2023/05/02 04:27:59;;;;;;;85.30;42.20;;;;;;;;;;5071402;28;20040;-81
2023/05/02 04:30:25;;;;;;;87.37;42.07;;;;;;;;;;5082439;28;20037;-80
2023/05/02 04:32:54;;;;;;;76.83;34.90;;;;;;;;;;5079285;28;20013;-80
2023/05/02 04:35:22;;;;;;;81.57;37.80;;;;;;;;;;5082583;28;20059;-80
2023/05/02 04:37:51;;;;;;;82.03;38.03;;;;;;;;;;5076963;28;20041;-81
2023/05/02 04:40:19;;;;;;;70.57;34.47;;;;;;;;;;5072386;28;20013;-80
2023/05/02 04:42:46;;;;;;;79.67;39.50;;;;;;;;;;5069356;28;20016;-80
2023/05/02 04:45:12;;;;;;;74.03;36.27;;;;;;;;;;5080695;28;20006;-81
2023/05/02 04:47:40;;;;;;;75.20;36.27;;;;;;;;;;5084099;28;20043;-80
2023/05/02 04:50:06;;;;;;;74.33;35.03;;;;;;;;;;5082737;28;20025;-80
2023/05/02 04:52:33;;;;;;;67.93;32.10;;;;;;;;;;5081636;28;20013;-80
2023/05/02 04:55:01;;;;;;;70.67;36.80;;;;;;;;;;5083194;28;20028;-80
2023/05/02 04:57:27;;;;;;;63.33;31.77;;;;;;;;;;5081470;28;20044;-81
2023/05/02 04:59:53;;;;;;;66.77;34.07;;;;;;;;;;5088135;28;20014;-80
2023/05/02 05:02:19;;;;;;;69.33;33.47;;;;;;;;;;5092596;28;20031;-80
2023/05/02 05:04:45;;;;;;;65.47;31.00;;;;;;;;;;5082948;28;20041;-80
2023/05/02 05:07:11;;;;;;;63.57;31.20;;;;;;;;;;5077590;28;20009;-80
2023/05/02 05:09:37;;;;;;;66.10;33.27;;;;;;;;;;5085900;28;20020;-80
2023/05/02 05:12:03;;;;;;;65.50;33.63;;;;;;;;;;5073951;28;20036;-80
2023/05/02 05:14:37;;;;;;;63.67;32.67;;;;;;;;;;5081798;28;20028;-80
2023/05/02 05:17:03;;;;;;;63.77;33.37;;;;;;;;;;5076224;28;20041;-80
2023/05/02 05:19:29;;;;;;;62.77;30.77;;;;;;;;;;5082711;28;20029;-80
2023/05/02 05:21:55;;;;;;;61.07;29.87;;;;;;;;;;5073352;28;20156;-80
2023/05/02 05:24:21;;;;;;;63.90;31.60;;;;;;;;;;5078570;28;20091;-80
2023/05/02 05:26:47;;;;;;;66.07;31.60;;;;;;;;;;5085235;28;20033;-80
2023/05/02 05:29:20;;;;;;;61.37;32.03;;;;;;;;;;5085489;28;20047;-80
2023/05/02 05:31:46;;;;;;;57.73;29.93;;;;;;;;;;5081064;28;20056;-80
2023/05/02 05:34:13;;;;;;;59.73;29.70;;;;;;;;;;5082105;28;20031;-80
2023/05/02 05:36:40;;;;;;;51.47;27.63;;;;;;;;;;5082941;28;20040;-80
2023/05/02 05:39:09;;;;;;;58.93;29.70;;;;;;;;;;5082371;28;20036;-80
2023/05/02 05:41:37;;;;;;;56.83;29.93;;;;;;;;;;5086554;28;20040;-80
2023/05/02 05:44:05;;;;;;;50.20;25.67;;;;;;;;;;5083761;28;20036;-82
2023/05/02 05:46:31;;;;;;;53.60;25.77;;;;;;;;;;5073760;28;20076;-80
2023/05/02 05:49:00;;;;;;;55.27;25.93;;;;;;;;;;5079423;28;20041;-80
2023/05/02 05:51:28;;;;;;;55.77;27.30;;;;;;;;;;5075002;28;20044;-80
2023/05/02 05:53:54;;;;;;;55.43;27.20;;;;;;;;;;5084642;28;20029;-80
2023/05/02 05:56:21;;;;;;;53.90;27.37;;;;;;;;;;5085213;28;20040;-80
2023/05/02 05:58:47;;;;;;;56.47;27.77;;;;;;;;;;5079111;28;20063;-80
2023/05/02 06:01:14;;;;;;;59.53;28.57;;;;;;;;;;5079568;28;20051;-80
2023/05/02 06:03:40;;;;;;;68.67;31.80;;;;;;;;;;5081650;28;20084;-80
2023/05/02 06:06:06;;;;;;;69.67;33.30;;;;;;;;;;5084410;28;20049;-81
2023/05/02 06:08:34;;;;;;;82.10;35.63;;;;;;;;;;5080717;28;20094;-81
2023/05/02 06:11:02;;;;;;;84.30;35.50;;;;;;;;;;5075367;28;20035;-81
2023/05/02 06:13:34;;;;;;;91.93;37.50;;;;;;;;;;5081520;28;20017;-80
2023/05/02 06:16:01;;;;;;;85.00;35.00;;;;;;;;;;5094638;22;20045;-81
2023/05/02 06:18:27;;;;;;;82.73;34.43;;;;;;;;;;5076948;28;20071;-80
2023/05/02 06:20:53;;;;;;;80.10;34.70;;;;;;;;;;5077333;28;20020;-80
2023/05/02 06:23:19;;;;;;;93.33;37.27;;;;;;;;;;5094001;28;20041;-80
2023/05/02 06:25:46;;;;;;;92.63;36.33;;;;;;;;;;5076526;28;20036;-80
2023/05/02 06:28:12;;;;;;;94.47;36.67;;;;;;;;;;5077054;28;20044;-80
2023/05/02 06:30:41;;;;;;;97.03;37.50;;;;;;;;;;5076398;28;20044;-80
2023/05/02 06:33:07;;;;;;;100.57;39.57;;;;;;;;;;5075643;28;20106;-80
2023/05/02 06:35:33;;;;;;;113.63;42.93;;;;;;;;;;5076969;28;20032;-80
2023/05/02 06:37:59;;;;;;;102.47;39.83;;;;;;;;;;5075350;28;20048;-80
2023/05/02 06:40:27;;;;;;;108.10;41.27;;;;;;;;;;5072932;28;20036;-80
2023/05/02 06:42:53;;;;;;;96.00;35.60;;;;;;;;;;5074238;28;20025;-80
2023/05/02 06:45:19;;;;;;;106.93;35.27;;;;;;;;;;5075175;28;20026;-80
2023/05/02 06:47:47;;;;;;;118.47;39.10;;;;;;;;;;5069882;28;20105;-80
2023/05/02 06:50:13;;;;;;;99.83;39.20;;;;;;;;;;5077528;28;20013;-80
2023/05/02 06:52:44;;;;;;;83.63;37.47;;;;;;;;;;5073782;28;20021;-80
2023/05/02 06:55:17;;;;;;;86.50;35.53;;;;;;;;;;5077440;28;20013;-80
2023/05/02 06:57:46;;;;;;;88.27;32.17;;;;;;;;;;5071013;28;20047;-80
2023/05/02 07:00:20;;;;;;;85.03;36.43;;;;;;;;;;5076261;28;20097;-80
2023/05/02 07:02:52;;;;;;;77.30;34.90;;;;;;;;;;5074535;28;20038;-80
2023/05/02 07:05:18;;;;;;;71.73;32.47;;;;;;;;;;5075690;28;20025;-81
2023/05/02 07:07:50;;;;;;;81.10;35.90;;;;;;;;;;5067995;28;20084;-81
2023/05/02 07:10:16;;;;;;;70.60;31.75;;;;;;;;;;5073662;28;20104;-80
2023/05/02 07:12:42;;;;;;;75.73;32.33;;;;;;;;;;5078054;28;20029;-81
2023/05/02 07:15:12;;;;;;;54.67;25.03;;;;;;;;;;5074517;28;20013;-81
2023/05/02 07:17:46;;;;;;;42.77;21.77;;;;;;;;;;5066099;28;20033;-80
2023/05/02 07:20:15;;;;;;;47.90;22.67;;;;;;;;;;5070424;28;20009;-80
2023/05/02 07:22:43;;;;;;;38.43;22.13;;;;;;;;;;5087373;28;20010;-80
2023/05/02 07:25:10;;;;;;;45.37;22.03;;;;;;;;;;5091997;28;20044;-80
2023/05/02 07:27:38;;;;;;;35.63;19.20;;;;;;;;;;5075155;28;20076;-80
2023/05/02 07:30:05;;;;;;;35.10;18.47;;;;;;;;;;5075368;28;20096;-80
2023/05/02 07:32:36;;;;;;;37.60;19.53;;;;;;;;;;5069339;28;20022;-80
2023/05/02 07:35:05;;;;;;;36.20;19.93;;;;;;;;;;5093945;28;20033;-80
2023/05/02 07:37:38;;;;;;;35.57;18.77;;;;;;;;;;5072087;28;20023;-81
2023/05/02 07:40:24;;;;;;;37.23;18.27;;;;;;;;;;5073272;28;20028;-80
2023/05/02 07:42:53;;;;;;;39.83;18.60;;;;;;;;;;5075776;28;20044;-79
2023/05/02 07:45:19;;;;;;;39.90;20.50;;;;;;;;;;5078128;28;20021;-79
2023/05/02 07:47:46;;;;;;;34.83;19.70;;;;;;;;;;5071882;28;20043;-80
2023/05/02 07:50:12;;;;;;;39.33;18.27;;;;;;;;;;5094037;28;20036;-80
2023/05/02 07:52:40;;;;;;;36.43;19.90;;;;;;;;;;5068380;28;20021;-80
2023/05/02 07:55:07;;;;;;;37.23;18.97;;;;;;;;;;5068975;28;20020;-80
2023/05/02 07:57:33;;;;;;;34.97;22.07;;;;;;;;;;5076029;28;20051;-80
2023/05/02 07:59:59;;;;;;;52.00;24.63;;;;;;;;;;5076633;28;20021;-81
2023/05/02 08:02:28;;;;;;;40.23;21.43;;;;;;;;;;5076437;28;20024;-80
2023/05/02 08:04:57;;;;;;;31.70;17.93;;;;;;;;;;5071875;28;20025;-81
2023/05/02 08:07:23;;;;;;;35.30;17.50;;;;;;;;;;5074070;28;20035;-80
2023/05/02 08:09:51;;;;;;;24.70;14.17;;;;;;;;;;5072338;28;20048;-80
2023/05/02 08:12:25;;;;;;;21.27;11.87;;;;;;;;;;5073229;28;20009;-80
2023/05/02 08:15:00;;;;;;;30.33;13.47;;;;;;;;;;5070533;28;20049;-80
2023/05/02 08:17:35;;;;;;;19.20;9.97;;;;;;;;;;5090949;28;20029;-80
2023/05/02 08:20:11;;;;;;;;;;;;;;;;;;;;;
2023/05/02 08:22:37;;;;;;;23.10;7.43;;;;;;;;;;5073838;28;20048;-81
2023/05/02 08:25:03;;;;;;;18.33;6.70;;;;;;;;;;5073604;28;20013;-80
2023/05/02 08:27:34;;;;;;;19.87;7.20;;;;;;;;;;5073174;28;20032;-80
2023/05/02 08:30:07;;;;;;;13.10;4.10;;;;;;;;;;5070636;28;20033;-80
2023/05/02 08:32:36;;;;;;;8.93;3.97;;;;;;;;;;5072543;28;20021;-79
2023/05/02 08:35:05;;;;;;;16.60;4.70;;;;;;;;;;5070502;28;20041;-79
2023/05/02 08:37:31;;;;;;;14.07;4.40;;;;;;;;;;5069803;28;20047;-80
2023/05/02 08:40:00;;;;;;;11.53;3.87;;;;;;;;;;5072795;28;20040;-79
2023/05/02 08:42:33;;;;;;;15.53;3.80;;;;;;;;;;5067044;28;20028;-80
2023/05/02 08:45:00;;;;;;;16.10;3.73;;;;;;;;;;5073389;28;20040;-79
2023/05/02 08:47:29;;;;;;;16.27;5.03;;;;;;;;;;5066830;28;20025;-80
2023/05/02 08:49:58;;;;;;;15.17;4.83;;;;;;;;;;5072064;28;20047;-79
2023/05/02 08:52:28;;;;;;;13.03;4.73;;;;;;;;;;5065655;28;20017;-79
2023/05/02 08:55:05;;;;;;;14.47;4.93;;;;;;;;;;5066470;28;20061;-80
2023/05/02 08:57:31;;;;;;;12.73;4.00;;;;;;;;;;5083100;28;20021;-80
2023/05/02 08:59:57;;;;;;;13.40;4.43;;;;;;;;;;5072054;28;20057;-81
2023/05/02 09:02:37;;;;;;;12.00;4.10;;;;;;;;;;5072409;28;20017;-80
2023/05/02 09:05:06;;;;;;;10.63;5.70;;;;;;;;;;5073143;28;20024;-79
2023/05/02 09:07:51;;;;;;;15.13;8.07;;;;;;;;;;5066585;28;20033;-79
2023/05/02 09:10:20;;;;;;;16.43;9.17;;;;;;;;;;5071921;28;20029;-79
2023/05/02 09:12:46;;;;;;;16.57;9.23;;;;;;;;;;5088691;28;20202;-80
2023/05/02 09:15:16;;;;;;;17.53;8.33;;;;;;;;;;5072093;28;20056;-80
2023/05/02 09:17:51;;;;;;;15.37;8.33;;;;;;;;;;5083732;28;20029;-80
2023/05/02 09:20:17;;;;;;;15.03;8.50;;;;;;;;;;5084082;28;20017;-80
2023/05/02 09:22:50;;;;;;;18.90;8.33;;;;;;;;;;5071496;28;20021;-79
2023/05/02 09:25:25;;;;;;;20.73;9.20;;;;;;;;;;5066006;28;20017;-80
2023/05/02 09:28:00;;;;;;;15.83;9.83;;;;;;;;;;5083362;28;20036;-79
2023/05/02 09:30:26;;;;;;;14.40;9.53;;;;;;;;;;5083358;28;20040;-80
2023/05/02 09:33:00;;;;;;;20.83;10.30;;;;;;;;;;5073631;28;20032;-80
2023/05/02 09:35:26;;;;;;;18.20;9.70;;;;;;;;;;5072509;28;20020;-79
2023/05/02 09:37:58;;;;;;;18.17;9.73;;;;;;;;;;5075775;28;20029;-80
2023/05/02 09:40:27;;;;;;;;;;;;;;;;;;5070486;28;20025;-80
2023/05/02 09:42:57;;;;;;;17.83;9.70;;;;;;;;;;5085924;28;19900;-79
2023/05/02 09:45:31;;;;;;;21.20;12.27;;;;;;;;;;5075386;28;20267;-79
2023/05/02 09:48:01;;;;;;;23.57;11.93;;;;;;;;;;5074191;28;20045;-79
2023/05/02 09:50:40;;;;;;;20.60;11.70;;;;;;;;;;5075281;28;20041;-79
2023/05/02 09:53:08;;;;;;;18.47;10.87;;;;;;;;;;5072359;28;20044;-80
2023/05/02 09:55:34;;;;;;;15.40;9.23;;;;;;;;;;5070382;28;20028;-79
2023/05/02 09:58:00;;;;;;;15.80;8.77;;;;;;;;;;5074977;28;20101;-79
2023/05/02 10:00:39;;;;;;;17.10;9.27;;;;;;;;;;5074915;28;20021;-80
2023/05/02 10:03:08;;;;;;;16.57;9.30;;;;;;;;;;5074854;28;20036;-79
2023/05/02 10:05:39;;;;;;;17.63;9.13;;;;;;;;;;5073526;28;20017;-79
2023/05/02 10:08:13;;;;;;;17.30;9.20;;;;;;;;;;5075472;28;20025;-79
2023/05/02 10:10:43;;;;;;;16.27;7.67;;;;;;;;;;5087161;28;20013;-80
2023/05/02 10:13:17;;;;;;;21.17;9.00;;;;;;;;;;5074556;28;20124;-80
2023/05/02 10:15:44;;;;;;;19.13;9.40;;;;;;;;;;5074361;28;20021;-79
2023/05/02 10:18:21;;;;;;;17.80;10.03;;;;;;;;;;5069314;28;20033;-79
2023/05/02 10:21:05;;;;;;;16.77;8.17;;;;;;;;;;5091601;28;20013;-80
2023/05/02 10:23:34;;;;;;;19.50;8.07;;;;;;;;;;5074586;28;20025;-79
2023/05/02 10:26:02;;;;;;;13.10;6.90;;;;;;;;;;5071873;28;20045;-79
2023/05/02 10:28:30;;;;;;;12.83;6.90;;;;;;;;;;5074574;28;20048;-79
2023/05/02 10:30:56;;;;;;;15.67;6.00;;;;;;;;;;5071699;28;20021;-78
2023/05/02 10:33:25;;;;;;;14.87;5.50;;;;;;;;;;5074695;28;20933;-79
2023/05/02 10:36:02;;;;;;;10.03;4.40;;;;;;;;;;5074604;28;20009;-80
2023/05/02 10:38:31;;;;;;;12.90;5.10;;;;;;;;;;5074203;28;20092;-79
2023/05/02 10:41:01;;;;;;;13.23;5.50;;;;;;;;;;5084833;28;20068;-80
2023/05/02 10:43:34;;;;;;;14.43;6.43;;;;;;;;;;5073285;28;20021;-79
2023/05/02 10:46:03;;;;;;;17.63;6.83;;;;;;;;;;5074118;28;20033;-79
2023/05/02 10:48:30;;;;;;;16.73;8.43;;;;;;;;;;5067105;28;20009;-79
2023/05/02 10:50:59;;;;;;;18.93;8.83;;;;;;;;;;5073363;28;20021;-80
2023/05/02 10:53:28;;;;;;;12.67;8.67;;;;;;;;;;5074268;28;20024;-79
2023/05/02 10:56:15;;;;;;;13.07;7.70;;;;;;;;;;5069079;28;20036;-79
2023/05/02 10:58:42;;;;;;;10.43;6.40;;;;;;;;;;5073651;28;20032;-79
2023/05/02 11:01:40;;;;;;;16.70;6.23;;;;;;;;;;5073822;28;20031;-80
2023/05/02 11:04:07;;;;;;;12.07;6.00;;;;;;;;;;5067611;28;20021;-79
2023/05/02 11:06:37;;;;;;;10.07;5.90;;;;;;;;;;5075244;28;21107;-79
2023/05/02 11:09:16;;;;;;;15.23;6.03;;;;;;;;;;5074429;28;20010;-79
2023/05/02 11:11:45;;;;;;;14.27;7.83;;;;;;;;;;5073302;28;20040;-79
2023/05/02 11:14:31;;;;;;;13.27;6.73;;;;;;;;;;5074340;28;20028;-79
2023/05/02 11:17:02;;;;;;;14.30;6.40;;;;;;;;;;5073769;28;20051;-79
2023/05/02 11:19:30;;;;;;;14.87;7.10;;;;;;;;;;5074835;28;20021;-79
2023/05/02 11:22:17;;;;;;;16.50;6.57;;;;;;;;;;5068099;28;20052;-80
2023/05/02 11:24:46;;;;;;;25.57;6.57;;;;;;;;;;5071414;28;20033;-79
2023/05/02 11:27:43;;;;;;;15.60;5.17;;;;;;;;;;5068267;28;20028;-79
2023/05/02 11:30:12;;;;;;;11.23;4.73;;;;;;;;;;5065226;28;20021;-79
2023/05/02 11:32:54;;;;;;;;;;;;;;;;;;;;;
2023/05/02 11:35:23;;;;;;;16.23;6.50;;;;;;;;;;5074628;28;20037;-79
2023/05/02 11:38:09;;;;;;;15.37;7.53;;;;;;;;;;5089888;28;20037;-79
2023/05/02 11:40:35;;;;;;;13.33;7.57;;;;;;;;;;5071111;28;20032;-80
2023/05/02 11:43:15;;;;;;;10.43;6.93;;;;;;;;;;5065969;28;20021;-79
2023/05/02 11:45:41;;;;;;;21.23;8.17;;;;;;;;;;5067625;28;20377;-80
2023/05/02 11:48:08;;;;;;;11.63;7.80;;;;;;;;;;5073693;28;20016;-79
2023/05/02 11:50:40;;;;;;;12.17;6.40;;;;;;;;;;5072741;28;20118;-80
2023/05/02 11:53:12;;;;;;;9.07;5.47;;;;;;;;;;5083343;28;20013;-79
2023/05/02 11:55:38;;;;;;;16.73;5.97;;;;;;;;;;5071569;28;20036;-78
2023/05/02 11:58:06;;;;;;;12.47;5.93;;;;;;;;;;5070821;28;20027;-79
2023/05/02 12:00:32;;;;;;;11.47;6.10;;;;;;;;;;5065861;28;20039;-78
2023/05/02 12:02:58;;;;;;;10.37;5.57;;;;;;;;;;5071274;28;20085;-80
2023/05/02 12:05:30;;;;;;;15.10;5.40;;;;;;;;;;5070389;28;20032;-80
2023/05/02 12:07:56;;;;;;;10.45;4.85;;;;;;;;;;5071381;28;20033;-80
2023/05/02 12:10:22;;;;;;;9.73;4.57;;;;;;;;;;5069584;28;20056;-79
2023/05/02 12:12:50;;;;;;;12.43;4.50;;;;;;;;;;5071570;28;20045;-80
2023/05/02 12:15:19;;;;;;;12.40;4.70;;;;;;;;;;5073277;28;20068;-79
2023/05/02 12:17:48;;;;;;;13.80;6.37;;;;;;;;;;5085306;28;20037;-80
2023/05/02 12:20:16;;;;;;;14.47;5.73;;;;;;;;;;5072593;28;20021;-79
2023/05/02 12:22:51;;;;;;;15.60;5.37;;;;;;;;;;5082480;28;20039;-80
2023/05/02 12:25:17;;;;;;;15.47;5.43;;;;;;;;;;5072543;28;20013;-78
2023/05/02 12:27:57;;;;;;;15.70;5.30;;;;;;;;;;5072659;28;20084;-78
2023/05/02 12:30:37;;;;;;;13.17;4.57;;;;;;;;;;5072053;28;20021;-79
2023/05/02 12:33:05;;;;;;;14.13;5.67;;;;;;;;;;5072630;28;20037;-79
2023/05/02 12:35:32;;;;;;;12.90;4.83;;;;;;;;;;5068618;28;20017;-79
2023/05/02 12:38:09;;;;;;;9.43;3.97;;;;;;;;;;5067463;28;20029;-79
2023/05/02 12:40:41;;;;;;;12.10;4.10;;;;;;;;;;5071146;28;20044;-80
2023/05/02 12:43:12;;;;;;;18.55;4.07;;;;;;;;;;5072590;28;20139;-79
2023/05/02 12:45:43;;;;;;;12.53;4.00;;;;;;;;;;5072614;28;20037;-79
2023/05/02 12:48:28;;;;;;;10.77;3.97;;;;;;;;;;5065467;28;20598;-79
2023/05/02 12:50:57;;;;;;;16.03;3.90;;;;;;;;;;5072185;28;20025;-79
2023/05/02 12:54:04;;;;;;;14.40;4.50;;;;;;;;;;5066913;28;20040;-79
2023/05/02 12:56:40;;;;;;;11.70;3.90;;;;;;;;;;5071473;28;20017;-79
2023/05/02 12:59:06;;;;;;;16.07;3.83;;;;;;;;;;5072676;28;20041;-80
2023/05/02 13:01:35;;;;;;;12.03;3.73;;;;;;;;;;5067707;28;20265;-79
2023/05/02 13:04:04;;;;;;;11.33;3.07;;;;;;;;;;5081943;28;20241;-79
2023/05/02 13:06:30;;;;;;;12.47;4.73;;;;;;;;;;5073172;28;20078;-80
2023/05/02 13:08:56;;;;;;;15.57;4.50;;;;;;;;;;5076235;28;20025;-79
2023/05/02 13:11:30;;;;;;;11.00;4.40;;;;;;;;;;5075048;28;20013;-79
2023/05/02 13:14:01;;;;;;;10.03;4.30;;;;;;;;;;5076581;28;20044;-79
2023/05/02 13:16:29;;;;;;;8.20;3.23;;;;;;;;;;5075217;28;20036;-79
2023/05/02 13:18:57;;;;;;;12.33;3.70;;;;;;;;;;5074168;28;20021;-79
2023/05/02 13:21:23;;;;;;;9.97;3.70;;;;;;;;;;5075573;28;20017;-79
2023/05/02 13:23:54;;;;;;;11.67;3.87;;;;;;;;;;5075966;28;20079;-79
2023/05/02 13:26:20;;;;;;;10.30;3.50;;;;;;;;;;5073056;28;20013;-79
2023/05/02 13:28:46;;;;;;;10.33;3.83;;;;;;;;;;5074195;28;20041;-79
2023/05/02 13:31:12;;;;;;;9.23;3.23;;;;;;;;;;5075320;28;20021;-80
2023/05/02 13:33:38;;;;;;;12.13;4.30;;;;;;;;;;5076104;28;20035;-80
2023/05/02 13:36:07;;;;;;;14.30;4.13;;;;;;;;;;5076056;28;20016;-79
2023/05/02 13:38:33;;;;;;;14.03;4.23;;;;;;;;;;5075149;28;20067;-80
2023/05/02 13:40:59;;;;;;;18.20;4.43;;;;;;;;;;5070575;28;20017;-79
2023/05/02 13:43:26;;;;;;;12.10;4.00;;;;;;;;;;5075881;28;20287;-80
2023/05/02 13:45:54;;;;;;;12.43;3.70;;;;;;;;;;5075417;28;20013;-79
2023/05/02 13:48:20;;;;;;;9.47;3.37;;;;;;;;;;5069590;28;20025;-80
2023/05/02 13:50:49;;;;;;;10.73;3.57;;;;;;;;;;5075151;28;20048;-80
2023/05/02 13:53:17;;;;;;;14.10;3.80;;;;;;;;;;5090474;28;20023;-79
2023/05/02 13:55:43;;;;;;;11.50;3.80;;;;;;;;;;5075530;28;20035;-80
2023/05/02 13:58:09;;;;;;;10.10;3.47;;;;;;;;;;5073039;28;20024;-79
2023/05/02 14:00:38;;;;;;;9.03;3.70;;;;;;;;;;5075045;28;20028;-79
2023/05/02 14:03:10;;;;;;;10.47;3.90;;;;;;;;;;5073858;28;20013;-79
2023/05/02 14:05:43;;;;;;;9.20;3.33;;;;;;;;;;5074814;28;20025;-80
2023/05/02 14:08:16;;;;;;;8.57;3.13;;;;;;;;;;5070722;28;20021;-79
2023/05/02 14:10:45;;;;;;;8.10;3.47;;;;;;;;;;5075764;28;20092;-80
2023/05/02 14:13:13;;;;;;;8.47;3.77;;;;;;;;;;5075959;28;20025;-79
2023/05/02 14:15:47;;;;;;;9.60;3.57;;;;;;;;;;5074487;28;20025;-80
2023/05/02 14:18:23;;;;;;;15.03;4.47;;;;;;;;;;5069831;28;20428;-79
2023/05/02 14:20:49;;;;;;;15.87;3.90;;;;;;;;;;5074594;28;20036;-79
2023/05/02 14:23:17;;;;;;;12.87;4.03;;;;;;;;;;5074849;28;20029;-78
2023/05/02 14:25:43;;;;;;;6.47;3.37;;;;;;;;;;5086288;28;20021;-79
2023/05/02 14:28:09;;;;;;;11.10;4.03;;;;;;;;;;5074268;28;20032;-80
2023/05/02 14:30:38;;;;;;;11.10;3.17;;;;;;;;;;5074321;28;20065;-79
2023/05/02 14:33:04;;;;;;;9.97;3.53;;;;;;;;;;5074154;28;20013;-78
2023/05/02 14:35:30;;;;;;;10.27;3.60;;;;;;;;;;5074370;28;20036;-79
2023/05/02 14:38:02;;;;;;;8.07;3.57;;;;;;;;;;5068911;28;20033;-80